sensor_id;sensor_type;location;lat;lon;timestamp;pressure;altitude;pressure_sealevel;temperature;humidity
68226;BME280;55045;49.410;11.030;2023-01-28T00:01:28;98677.94;;;-0.66;100.00
68226;BME280;55045;49.410;11.030;2023-01-28T00:04:31;98672.00;;;-0.68;100.00
68226;BME280;55045;49.410;11.030;2023-01-28T00:07:36;98672.03;;;-0.57;100.00
68226;BME280;55045;49.410;11.030;2023-01-28T00:10:40;98669.44;;;-0.68;100.00
68226;BME280;55045;49.410;11.030;2023-01-28T00:13:44;98670.44;;;-0.31;100.00
68226;BME280;55045;49.410;11.030;2023-01-28T00:16:47;98671.19;;;-0.61;100.00
68226;BME280;55045;49.410;11.030;2023-01-28T00:19:51;98662.59;;;-0.80;100.00
68226;BME280;55045;49.410;11.030;2023-01-28T00:22:55;98666.03;;;-0.70;100.00
68226;BME280;55045;49.410;11.030;2023-01-28T00:25:59;98649.00;;;-0.77;100.00
68226;BME280;55045;49.410;11.030;2023-01-28T00:29:03;98668.59;;;-0.69;100.00
68226;BME280;55045;49.410;11.030;2023-01-28T00:32:07;98667.75;;;-0.69;100.00
68226;BME280;55045;49.410;11.030;2023-01-28T00:35:10;98663.47;;;-0.73;100.00
68226;BME280;55045;49.410;11.030;2023-01-28T00:38:17;98669.38;;;-0.77;100.00
68226;BME280;55045;49.410;11.030;2023-01-28T00:41:22;98661.81;;;-0.68;100.00
68226;BME280;55045;49.410;11.030;2023-01-28T00:44:25;98662.59;;;-0.80;100.00
68226;BME280;55045;49.410;11.030;2023-01-28T00:47:29;98670.28;;;-0.68;100.00
68226;BME280;55045;49.410;11.030;2023-01-28T00:50:32;98664.28;;;-0.79;100.00
68226;BME280;55045;49.410;11.030;2023-01-28T00:53:37;98669.50;;;-0.59;100.00
68226;BME280;55045;49.410;11.030;2023-01-28T00:56:41;98661.75;;;-0.79;100.00
68226;BME280;55045;49.410;11.030;2023-01-28T00:59:45;98671.09;;;-0.73;100.00
68226;BME280;55045;49.410;11.030;2023-01-28T01:02:48;98659.19;;;-0.80;100.00
68226;BME280;55045;49.410;11.030;2023-01-28T01:05:51;98675.44;;;-0.55;100.00
68226;BME280;55045;49.410;11.030;2023-01-28T01:08:56;98671.19;;;-0.52;100.00
68226;BME280;55045;49.410;11.030;2023-01-28T01:12:02;98674.72;;;-0.25;100.00
68226;BME280;55045;49.410;11.030;2023-01-28T01:15:07;98643.81;;;-0.99;100.00
68226;BME280;55045;49.410;11.030;2023-01-28T01:18:11;98683.09;;;-0.55;100.00
68226;BME280;55045;49.410;11.030;2023-01-28T01:21:16;98689.22;;;-0.11;100.00
68226;BME280;55045;49.410;11.030;2023-01-28T01:24:21;98687.31;;;-0.61;100.00
68226;BME280;55045;49.410;11.030;2023-01-28T01:27:44;98681.31;;;-0.70;100.00
68226;BME280;55045;49.410;11.030;2023-01-28T01:30:48;98677.19;;;-0.44;100.00
68226;BME280;55045;49.410;11.030;2023-01-28T01:33:52;98685.69;;;-0.42;100.00
68226;BME280;55045;49.410;11.030;2023-01-28T01:36:55;98661.75;;;-0.80;100.00
68226;BME280;55045;49.410;11.030;2023-01-28T01:40:00;98688.22;;;-0.51;100.00
68226;BME280;55045;49.410;11.030;2023-01-28T01:43:14;98687.28;;;-0.68;100.00
68226;BME280;55045;49.410;11.030;2023-01-28T01:46:22;98690.66;;;-0.69;100.00
68226;BME280;55045;49.410;11.030;2023-01-28T01:49:27;98698.28;;;-0.72;100.00
68226;BME280;55045;49.410;11.030;2023-01-28T01:52:32;98698.38;;;-0.52;100.00
68226;BME280;55045;49.410;11.030;2023-01-28T01:55:40;98700.94;;;-0.54;100.00
68226;BME280;55045;49.410;11.030;2023-01-28T01:58:49;98710.22;;;-0.62;100.00
68226;BME280;55045;49.410;11.030;2023-01-28T02:01:55;98703.53;;;-0.42;100.00
68226;BME280;55045;49.410;11.030;2023-01-28T02:05:01;98704.22;;;-0.72;100.00
68226;BME280;55045;49.410;11.030;2023-01-28T02:08:05;98703.53;;;-0.45;100.00
68226;BME280;55045;49.410;11.030;2023-01-28T02:11:29;98700.97;;;-0.51;100.00
68226;BME280;55045;49.410;11.030;2023-01-28T02:14:37;98710.25;;;-0.56;100.00
68226;BME280;55045;49.410;11.030;2023-01-28T02:17:43;98704.25;;;-0.67;100.00
68226;BME280;55045;49.410;11.030;2023-01-28T02:24:44;98703.41;;;-0.63;100.00
68226;BME280;55045;49.410;11.030;2023-01-28T02:28:20;98711.09;;;-0.60;100.00
68226;BME280;55045;49.410;11.030;2023-01-28T02:31:28;98706.13;;;-0.33;100.00
68226;BME280;55045;49.410;11.030;2023-01-28T02:34:37;98704.38;;;-0.49;100.00
68226;BME280;55045;49.410;11.030;2023-01-28T02:38:04;98700.91;;;-0.60;100.00
68226;BME280;55045;49.410;11.030;2023-01-28T02:41:17;98709.59;;;-0.20;100.00
68226;BME280;55045;49.410;11.030;2023-01-28T02:44:25;98708.63;;;-0.45;100.00
68226;BME280;55045;49.410;11.030;2023-01-28T02:47:28;98705.31;;;-0.28;100.00
68226;BME280;55045;49.410;11.030;2023-01-28T02:50:54;98698.38;;;-0.52;100.00
68226;BME280;55045;49.410;11.030;2023-01-28T02:54:08;98711.16;;;-0.46;100.00
68226;BME280;55045;49.410;11.030;2023-01-28T02:57:27;98706.84;;;-0.60;100.00
68226;BME280;55045;49.410;11.030;2023-01-28T03:00:55;98707.72;;;-0.56;100.00
68226;BME280;55045;49.410;11.030;2023-01-28T03:04:08;98708.50;;;-0.65;100.00
68226;BME280;55045;49.410;11.030;2023-01-28T03:07:16;98717.78;;;-0.73;100.00
68226;BME280;55045;49.410;11.030;2023-01-28T03:10:23;98709.31;;;-0.72;100.00
68226;BME280;55045;49.410;11.030;2023-01-28T03:13:27;98717.84;;;-0.67;100.00
68226;BME280;55045;49.410;11.030;2023-01-28T03:16:50;98718.81;;;-0.51;100.00
68226;BME280;55045;49.410;11.030;2023-01-28T03:20:14;98730.66;;;-0.53;100.00
68226;BME280;55045;49.410;11.030;2023-01-28T03:23:39;98716.25;;;-0.48;100.00
68226;BME280;55045;49.410;11.030;2023-01-28T03:27:05;98706.81;;;-0.67;100.00
68226;BME280;55045;49.410;11.030;2023-01-28T03:30:38;98716.25;;;-0.51;100.00
68226;BME280;55045;49.410;11.030;2023-01-28T03:34:16;98719.53;;;-0.66;100.00
68226;BME280;55045;49.410;11.030;2023-01-28T03:37:38;98733.16;;;-0.62;100.00
68226;BME280;55045;49.410;11.030;2023-01-28T03:41:08;98728.03;;;-0.65;100.00
68226;BME280;55045;49.410;11.030;2023-01-28T03:44:32;98716.03;;;-0.86;100.00
68226;BME280;55045;49.410;11.030;2023-01-28T03:47:55;98743.25;;;-0.79;100.00
68226;BME280;55045;49.410;11.030;2023-01-28T03:50:59;98749.25;;;-0.69;100.00
68226;BME280;55045;49.410;11.030;2023-01-28T03:54:04;98749.19;;;-0.81;100.00
68226;BME280;55045;49.410;11.030;2023-01-28T03:57:08;98752.72;;;-0.53;100.00
68226;BME280;55045;49.410;11.030;2023-01-28T04:00:12;98749.19;;;-0.81;100.00
68226;BME280;55045;49.410;11.030;2023-01-28T04:03:20;98752.66;;;-0.70;100.00
68226;BME280;55045;49.410;11.030;2023-01-28T04:06:48;98743.19;;;-0.88;100.00
68226;BME280;55045;49.410;11.030;2023-01-28T04:10:10;98759.31;;;-0.84;100.00
68226;BME280;55045;49.410;11.030;2023-01-28T04:13:28;98732.91;;;-1.00;100.00
68226;BME280;55045;49.410;11.030;2023-01-28T04:16:50;98762.84;;;-0.67;100.00
68226;BME280;55045;49.410;11.030;2023-01-28T04:19:57;98759.38;;;-0.80;100.00
68226;BME280;55045;49.410;11.030;2023-01-28T04:23:02;98764.47;;;-0.81;100.00
68226;BME280;55045;49.410;11.030;2023-01-28T04:26:05;98763.88;;;-0.36;100.00
68226;BME280;55045;49.410;11.030;2023-01-28T04:29:09;98758.59;;;-0.67;100.00
68226;BME280;55045;49.410;11.030;2023-01-28T04:34:30;98773.81;;;-0.79;100.00
68226;BME280;55045;49.410;11.030;2023-01-28T04:38:03;98784.06;;;-0.67;100.00
68226;BME280;55045;49.410;11.030;2023-01-28T04:41:29;98759.38;;;-0.81;100.00
68226;BME280;55045;49.410;11.030;2023-01-28T04:44:38;98786.56;;;-0.73;100.00
68226;BME280;55045;49.410;11.030;2023-01-28T04:48:11;98777.59;;;-0.19;100.00
68226;BME280;55045;49.410;11.030;2023-01-28T04:51:39;98784.84;;;-0.77;100.00
68226;BME280;55045;49.410;11.030;2023-01-28T04:55:06;98786.84;;;-0.35;100.00
68226;BME280;55045;49.410;11.030;2023-01-28T04:58:10;98795.97;;;-0.63;100.00
68226;BME280;55045;49.410;11.030;2023-01-28T05:01:15;98789.94;;;-0.80;100.00
68226;BME280;55045;49.410;11.030;2023-01-28T05:04:18;98792.59;;;-0.62;100.00
68226;BME280;55045;49.410;11.030;2023-01-28T05:07:23;98785.91;;;-0.44;100.00
68226;BME280;55045;49.410;11.030;2023-01-28T05:10:27;98784.06;;;-0.68;100.00
68226;BME280;55045;49.410;11.030;2023-01-28T05:13:32;98782.44;;;-0.59;100.00
68226;BME280;55045;49.410;11.030;2023-01-28T05:16:35;98788.31;;;-0.66;100.00
68226;BME280;55045;49.410;11.030;2023-01-28T05:19:39;98783.31;;;-0.55;100.00
68226;BME280;55045;49.410;11.030;2023-01-28T05:22:50;98779.06;;;-0.53;100.00
68226;BME280;55045;49.410;11.030;2023-01-28T05:25:56;98786.56;;;-0.74;100.00
68226;BME280;55045;49.410;11.030;2023-01-28T05:28:59;98784.94;;;-0.63;100.00
68226;BME280;55045;49.410;11.030;2023-01-28T05:32:03;98790.00;;;-0.69;100.00
68226;BME280;55045;49.410;11.030;2023-01-28T05:35:08;98792.50;;;-0.75;100.00
68226;BME280;55045;49.410;11.030;2023-01-28T05:38:13;98795.19;;;-0.54;100.00
68226;BME280;55045;49.410;11.030;2023-01-28T05:41:17;98790.78;;;-0.76;100.00
68226;BME280;55045;49.410;11.030;2023-01-28T05:44:23;98795.13;;;-0.68;100.00
68226;BME280;55045;49.410;11.030;2023-01-28T05:47:42;98794.34;;;-0.56;100.00
68226;BME280;55045;49.410;11.030;2023-01-28T05:51:09;98683.41;;;-1.36;100.00
68226;BME280;55045;49.410;11.030;2023-01-28T05:54:20;98781.66;;;-0.50;100.00
68226;BME280;55045;49.410;11.030;2023-01-28T05:57:23;98789.97;;;-0.72;100.00
68226;BME280;55045;49.410;11.030;2023-01-28T06:00:45;98796.09;;;-0.50;100.00
68226;BME280;55045;49.410;11.030;2023-01-28T06:03:53;98799.69;;;-0.12;100.00
68226;BME280;55045;49.410;11.030;2023-01-28T06:06:56;98802.69;;;-0.75;100.00
68226;BME280;55045;49.410;11.030;2023-01-28T06:10:02;98801.97;;;-0.61;100.00
68226;BME280;55045;49.410;11.030;2023-01-28T06:13:06;98813.66;;;-0.84;100.00
68226;BME280;55045;49.410;11.030;2023-01-28T06:16:34;98812.00;;;-0.80;100.00
68226;BME280;55045;49.410;11.030;2023-01-28T06:19:56;98812.78;;;-0.86;100.00
68226;BME280;55045;49.410;11.030;2023-01-28T06:23:00;98812.00;;;-0.80;100.00
68226;BME280;55045;49.410;11.030;2023-01-28T06:26:05;98818.81;;;-0.76;100.00
68226;BME280;55045;49.410;11.030;2023-01-28T06:29:10;98808.53;;;-0.92;100.00
68226;BME280;55045;49.410;11.030;2023-01-28T06:32:13;98832.31;;;-0.87;100.00
68226;BME280;55045;49.410;11.030;2023-01-28T06:35:17;98838.56;;;-0.51;100.00
68226;BME280;55045;49.410;11.030;2023-01-28T06:38:20;98841.84;;;-0.64;100.00
68226;BME280;55045;49.410;11.030;2023-01-28T06:41:25;98846.81;;;-0.78;100.00
68226;BME280;55045;49.410;11.030;2023-01-28T06:44:28;98846.75;;;-0.85;100.00
68226;BME280;55045;49.410;11.030;2023-01-28T06:47:32;98856.19;;;-0.72;100.00
68226;BME280;55045;49.410;11.030;2023-01-28T06:50:35;98850.31;;;-0.67;100.00
68226;BME280;55045;49.410;11.030;2023-01-28T06:53:57;98851.94;;;-0.76;100.00
68226;BME280;55045;49.410;11.030;2023-01-28T06:57:02;98851.94;;;-0.76;100.00
68226;BME280;55045;49.410;11.030;2023-01-28T07:00:08;98851.91;;;-0.78;100.00
68226;BME280;55045;49.410;11.030;2023-01-28T07:03:12;98850.16;;;-0.82;100.00
68226;BME280;55045;49.410;11.030;2023-01-28T07:06:15;98858.69;;;-0.81;100.00
68226;BME280;55045;49.410;11.030;2023-01-28T07:09:19;98862.03;;;-0.82;100.00
68226;BME280;55045;49.410;11.030;2023-01-28T07:12:24;98862.88;;;-0.83;100.00
68226;BME280;55045;49.410;11.030;2023-01-28T07:15:28;98862.88;;;-0.83;100.00
68226;BME280;55045;49.410;11.030;2023-01-28T07:18:31;98881.63;;;-0.78;100.00
68226;BME280;55045;49.410;11.030;2023-01-28T07:21:35;98879.16;;;-0.71;100.00
68226;BME280;55045;49.410;11.030;2023-01-28T07:24:38;98887.78;;;-0.55;100.00
68226;BME280;55045;49.410;11.030;2023-01-28T07:27:47;98877.41;;;-0.73;100.00
68226;BME280;55045;49.410;11.030;2023-01-28T07:30:51;98881.66;;;-0.72;100.00
68226;BME280;55045;49.410;11.030;2023-01-28T07:33:55;98880.84;;;-0.71;100.00
68226;BME280;55045;49.410;11.030;2023-01-28T07:36:59;98880.13;;;-0.52;100.00
68226;BME280;55045;49.410;11.030;2023-01-28T07:40:03;98884.50;;;-0.40;100.00
68226;BME280;55045;49.410;11.030;2023-01-28T07:43:26;98880.25;;;-0.40;100.00
68226;BME280;55045;49.410;11.030;2023-01-28T07:46:29;98882.06;;;-0.22;100.00
68226;BME280;55045;49.410;11.030;2023-01-28T07:49:33;98888.63;;;-0.53;100.00
68226;BME280;55045;49.410;11.030;2023-01-28T07:52:38;98884.28;;;-0.63;100.00
68226;BME280;55045;49.410;11.030;2023-01-28T07:55:45;98886.94;;;-0.54;100.00
68226;BME280;55045;49.410;11.030;2023-01-28T07:58:50;98892.00;;;-0.57;100.00
68226;BME280;55045;49.410;11.030;2023-01-28T08:01:53;98885.31;;;-0.44;100.00
68226;BME280;55045;49.410;11.030;2023-01-28T08:04:57;98900.59;;;-0.46;100.00
68226;BME280;55045;49.410;11.030;2023-01-28T08:08:02;98892.88;;;-0.53;100.00
68226;BME280;55045;49.410;11.030;2023-01-28T08:11:07;98898.03;;;-0.46;100.00
68226;BME280;55045;49.410;11.030;2023-01-28T08:14:13;98897.13;;;-0.54;100.00
68226;BME280;55045;49.410;11.030;2023-01-28T08:17:16;98891.22;;;-0.48;100.00
68226;BME280;55045;49.410;11.030;2023-01-28T08:20:20;98902.47;;;-0.23;100.00
68226;BME280;55045;49.410;11.030;2023-01-28T08:23:24;98907.38;;;-0.48;100.00
68226;BME280;55045;49.410;11.030;2023-01-28T08:26:29;98908.22;;;-0.49;100.00
68226;BME280;55045;49.410;11.030;2023-01-28T08:29:34;98909.31;;;-0.16;100.00
68226;BME280;55045;49.410;11.030;2023-01-28T08:32:56;98900.66;;;-0.35;100.00
68226;BME280;55045;49.410;11.030;2023-01-28T08:36:01;98903.28;;;-0.27;100.00
68226;BME280;55045;49.410;11.030;2023-01-28T08:39:05;98899.16;;;-0.10;100.00
68226;BME280;55045;49.410;11.030;2023-01-28T08:42:09;98894.69;;;-0.40;100.00
68226;BME280;55045;49.410;11.030;2023-01-28T08:45:14;98908.41;;;-0.21;100.00
68226;BME280;55045;49.410;11.030;2023-01-28T08:48:18;98893.88;;;-0.35;100.00
68226;BME280;55045;49.410;11.030;2023-01-28T08:51:22;98905.00;;;-0.22;100.00
68226;BME280;55045;49.410;11.030;2023-01-28T08:54:26;98910.16;;;-0.19;100.00
68226;BME280;55045;49.410;11.030;2023-01-28T08:57:29;98910.09;;;-0.23;100.00
68226;BME280;55045;49.410;11.030;2023-01-28T09:00:34;98911.81;;;-0.22;100.00
68226;BME280;55045;49.410;11.030;2023-01-28T09:03:38;98917.88;;;-0.10;100.00
68226;BME280;55045;49.410;11.030;2023-01-28T09:06:59;98921.28;;;-0.06;100.00
68226;BME280;55045;49.410;11.030;2023-01-28T09:10:05;98905.13;;;-0.10;100.00
68226;BME280;55045;49.410;11.030;2023-01-28T09:13:11;98909.31;;;-0.13;100.00
68226;BME280;55045;49.410;11.030;2023-01-28T09:16:34;98904.22;;;-0.16;100.00
68226;BME280;55045;49.410;11.030;2023-01-28T09:19:38;98903.50;;;0.03;100.00
68226;BME280;55045;49.410;11.030;2023-01-28T09:23:00;98916.31;;;0.15;100.00
68226;BME280;55045;49.410;11.030;2023-01-28T09:26:05;98914.56;;;0.04;100.00
68226;BME280;55045;49.410;11.030;2023-01-28T09:29:09;98916.13;;;-0.15;100.00
68226;BME280;55045;49.410;11.030;2023-01-28T09:32:33;98917.81;;;-0.14;100.00
68226;BME280;55045;49.410;11.030;2023-01-28T09:35:36;98925.47;;;-0.11;100.00
68226;BME280;55045;49.410;11.030;2023-01-28T09:38:39;98933.19;;;-0.04;100.00
68226;BME280;55045;49.410;11.030;2023-01-28T09:41:49;98932.41;;;0.04;100.00
68226;BME280;55045;49.410;11.030;2023-01-28T09:45:02;98934.88;;;-0.07;100.00
68226;BME280;55045;49.410;11.030;2023-01-28T09:48:13;98948.44;;;-0.13;100.00
68226;BME280;55045;49.410;11.030;2023-01-28T09:51:28;98939.97;;;-0.07;100.00
68226;BME280;55045;49.410;11.030;2023-01-28T09:54:37;98934.13;;;0.06;100.00
68226;BME280;55045;49.410;11.030;2023-01-28T09:57:46;98937.53;;;0.10;100.00
68226;BME280;55045;49.410;11.030;2023-01-28T10:00:56;98941.75;;;0.03;100.00
68226;BME280;55045;49.410;11.030;2023-01-28T10:04:09;98940.25;;;0.39;100.00
68226;BME280;55045;49.410;11.030;2023-01-28T10:07:27;98943.47;;;0.10;100.00
68226;BME280;55045;49.410;11.030;2023-01-28T10:10:40;98928.16;;;0.03;100.00
68226;BME280;55045;49.410;11.030;2023-01-28T10:13:58;98931.63;;;0.15;100.00
68226;BME280;55045;49.410;11.030;2023-01-28T10:17:11;98939.22;;;0.09;100.00
68226;BME280;55045;49.410;11.030;2023-01-28T10:20:24;98871.19;;;0.01;100.00
68226;BME280;55045;49.410;11.030;2023-01-28T10:23:40;98924.84;;;0.20;100.00
68226;BME280;55045;49.410;11.030;2023-01-28T10:26:47;98933.44;;;0.38;100.00
68226;BME280;55045;49.410;11.030;2023-01-28T10:29:51;98932.47;;;0.17;100.00
68226;BME280;55045;49.410;11.030;2023-01-28T10:34:30;98928.34;;;0.32;100.00
68226;BME280;55045;49.410;11.030;2023-01-28T10:37:36;98927.69;;;0.78;100.00
68226;BME280;55045;49.410;11.030;2023-01-28T10:40:41;98919.94;;;0.60;100.00
68226;BME280;55045;49.410;11.030;2023-01-28T10:43:49;98918.94;;;0.26;100.00
68226;BME280;55045;49.410;11.030;2023-01-28T10:46:56;98914.69;;;0.26;100.00
68226;BME280;55045;49.410;11.030;2023-01-28T10:50:04;98914.63;;;0.17;100.00
68226;BME280;55045;49.410;11.030;2023-01-28T10:53:33;98920.63;;;0.25;100.00
68226;BME280;55045;49.410;11.030;2023-01-28T10:56:38;98916.50;;;0.46;100.00
68226;BME280;55045;49.410;11.030;2023-01-28T10:59:45;98919.84;;;0.33;100.00
68226;BME280;55045;49.410;11.030;2023-01-28T11:02:51;98911.41;;;0.52;100.00
68226;BME280;55045;49.410;11.030;2023-01-28T11:05:57;98890.88;;;0.31;100.00
68226;BME280;55045;49.410;11.030;2023-01-28T11:09:01;98925.09;;;0.65;100.00
68226;BME280;55045;49.410;11.030;2023-01-28T11:12:12;98920.78;;;0.61;100.00
68226;BME280;55045;49.410;11.030;2023-01-28T11:15:34;98919.91;;;0.48;100.00
68226;BME280;55045;49.410;11.030;2023-01-28T11:18:39;98921.59;;;0.49;100.00
68226;BME280;55045;49.410;11.030;2023-01-28T11:21:50;98919.03;;;0.49;100.00
68226;BME280;55045;49.410;11.030;2023-01-28T11:24:56;98916.53;;;0.58;100.00
68226;BME280;55045;49.410;11.030;2023-01-28T11:28:01;98931.09;;;0.74;100.00
68226;BME280;55045;49.410;11.030;2023-01-28T11:31:05;98930.19;;;0.63;100.00
68226;BME280;55045;49.410;11.030;2023-01-28T11:34:14;98932.75;;;0.66;100.00
68226;BME280;55045;49.410;11.030;2023-01-28T11:37:21;98927.50;;;0.39;100.00
68226;BME280;55045;49.410;11.030;2023-01-28T11:40:25;98926.69;;;0.44;100.00
68226;BME280;55045;49.410;11.030;2023-01-28T11:43:30;98931.97;;;0.85;100.00
68226;BME280;55045;49.410;11.030;2023-01-28T11:46:50;98924.97;;;0.42;100.00
68226;BME280;55045;49.410;11.030;2023-01-28T11:50:17;98917.28;;;0.37;100.00
68226;BME280;55045;49.410;11.030;2023-01-28T11:53:47;98930.06;;;0.37;100.00
68226;BME280;55045;49.410;11.030;2023-01-28T11:57:03;98928.28;;;0.27;100.00
68226;BME280;55045;49.410;11.030;2023-01-28T12:00:30;98917.28;;;0.39;100.00
68226;BME280;55045;49.410;11.030;2023-01-28T12:03:42;98921.53;;;0.40;100.00
68226;BME280;55045;49.410;11.030;2023-01-28T12:06:59;98919.16;;;0.79;100.00
68226;BME280;55045;49.410;11.030;2023-01-28T12:10:13;98914.84;;;0.60;100.00
68226;BME280;55045;49.410;11.030;2023-01-28T12:13:34;98916.53;;;0.52;100.00
68226;BME280;55045;49.410;11.030;2023-01-28T12:16:53;98912.28;;;0.55;100.00
68226;BME280;55045;49.410;11.030;2023-01-28T12:20:08;98873.88;;;0.29;100.00
68226;BME280;55045;49.410;11.030;2023-01-28T12:23:27;98911.53;;;0.89;100.00
68226;BME280;55045;49.410;11.030;2023-01-28T12:26:46;98918.25;;;0.59;100.00
68226;BME280;55045;49.410;11.030;2023-01-28T12:30:00;98913.03;;;0.39;100.00
68226;BME280;55045;49.410;11.030;2023-01-28T12:33:21;98924.16;;;0.46;100.00
68226;BME280;55045;49.410;11.030;2023-01-28T12:36:42;98918.13;;;0.35;100.00
68226;BME280;55045;49.410;11.030;2023-01-28T12:40:28;98918.88;;;0.18;100.00
68226;BME280;55045;49.410;11.030;2023-01-28T12:43:47;98920.06;;;0.83;100.00
68226;BME280;55045;49.410;11.030;2023-01-28T12:47:00;98918.22;;;0.53;100.00
68226;BME280;55045;49.410;11.030;2023-01-28T12:50:13;98888.31;;;0.29;100.00
68226;BME280;55045;49.410;11.030;2023-01-28T12:53:22;98905.50;;;0.64;100.00
68226;BME280;55045;49.410;11.030;2023-01-28T12:56:30;98918.25;;;0.59;100.00
68226;BME280;55045;49.410;11.030;2023-01-28T12:59:41;98904.53;;;0.33;100.00
68226;BME280;55045;49.410;11.030;2023-01-28T13:02:52;98904.53;;;0.33;100.00
68226;BME280;55045;49.410;11.030;2023-01-28T13:05:59;98896.16;;;0.64;100.00
68226;BME280;55045;49.410;11.030;2023-01-28T13:09:12;98879.94;;;0.54;100.00
68226;BME280;55045;49.410;11.030;2023-01-28T13:12:17;98796.22;;;-0.26;100.00
68226;BME280;55045;49.410;11.030;2023-01-28T13:15:24;98905.38;;;0.35;100.00
68226;BME280;55045;49.410;11.030;2023-01-28T13:18:33;98907.94;;;0.35;100.00
68226;BME280;55045;49.410;11.030;2023-01-28T13:21:45;98885.81;;;0.40;100.00
68226;BME280;55045;49.410;11.030;2023-01-28T13:24:51;98906.22;;;0.37;100.00
68226;BME280;55045;49.410;11.030;2023-01-28T13:27:56;98904.59;;;0.51;100.00
68226;BME280;55045;49.410;11.030;2023-01-28T13:31:04;98908.81;;;0.44;100.00
68226;BME280;55045;49.410;11.030;2023-01-28T13:34:08;98915.56;;;0.32;100.00
68226;BME280;55045;49.410;11.030;2023-01-28T13:37:22;98918.13;;;0.35;100.00
68226;BME280;55045;49.410;11.030;2023-01-28T13:40:29;98921.47;;;0.24;100.00
68226;BME280;55045;49.410;11.030;2023-01-28T13:43:39;98923.28;;;0.47;100.00
68226;BME280;55045;49.410;11.030;2023-01-28T13:46:44;98927.50;;;0.37;100.00
68226;BME280;55045;49.410;11.030;2023-01-28T13:49:52;98927.38;;;0.17;100.00
68226;BME280;55045;49.410;11.030;2023-01-28T13:53:20;98926.59;;;0.27;100.00
68226;BME280;55045;49.410;11.030;2023-01-28T13:56:30;98935.88;;;0.16;100.00
68226;BME280;55045;49.410;11.030;2023-01-28T13:59:46;98937.69;;;0.33;100.00
68226;BME280;55045;49.410;11.030;2023-01-28T14:10:53;98912.00;;;0.08;100.00
68226;BME280;55045;49.410;11.030;2023-01-28T14:14:21;98946.03;;;0.09;100.00
68226;BME280;55045;49.410;11.030;2023-01-28T14:17:34;98950.41;;;0.29;100.00
68226;BME280;55045;49.410;11.030;2023-01-28T14:20:45;98950.56;;;0.57;100.00
68226;BME280;55045;49.410;11.030;2023-01-28T14:24:16;98952.06;;;0.20;100.00
68226;BME280;55045;49.410;11.030;2023-01-28T14:27:31;98966.63;;;0.38;100.00
68226;BME280;55045;49.410;11.030;2023-01-28T14:30:48;98956.28;;;0.19;100.00
68226;BME280;55045;49.410;11.030;2023-01-28T14:33:54;98967.41;;;0.27;100.00
68226;BME280;55045;49.410;11.030;2023-01-28T14:37:04;98970.66;;;0.02;100.00
68226;BME280;55045;49.410;11.030;2023-01-28T14:40:12;98945.78;;;-0.23;100.00
68226;BME280;55045;49.410;11.030;2023-01-28T14:43:22;98980.75;;;-0.10;100.00
68226;BME280;55045;49.410;11.030;2023-01-28T14:46:31;98984.22;;;-0.02;100.00
68226;BME280;55045;49.410;11.030;2023-01-28T14:49:45;98979.09;;;-0.04;100.00
68226;BME280;55045;49.410;11.030;2023-01-28T14:53:04;98985.13;;;0.06;100.00
68226;BME280;55045;49.410;11.030;2023-01-28T14:56:21;98987.69;;;0.09;100.00
68226;BME280;55045;49.410;11.030;2023-01-28T14:59:31;98985.03;;;-0.05;100.00
68226;BME280;55045;49.410;11.030;2023-01-28T15:02:42;98978.09;;;-0.21;100.00
68226;BME280;55045;49.410;11.030;2023-01-28T15:05:45;98990.16;;;-0.02;100.00
68226;BME280;55045;49.410;11.030;2023-01-28T15:08:49;98989.22;;;-0.14;100.00
68226;BME280;55045;49.410;11.030;2023-01-28T15:11:56;98997.00;;;0.01;100.00
68226;BME280;55045;49.410;11.030;2023-01-28T15:15:09;99000.28;;;-0.12;100.00
68226;BME280;55045;49.410;11.030;2023-01-28T15:18:16;99003.59;;;-0.21;100.00
68226;BME280;55045;49.410;11.030;2023-01-28T15:21:21;99007.81;;;-0.26;100.00
68226;BME280;55045;49.410;11.030;2023-01-28T15:24:25;99011.22;;;-0.24;100.00
68226;BME280;55045;49.410;11.030;2023-01-28T15:27:29;98978.63;;;-0.60;100.00
68226;BME280;55045;49.410;11.030;2023-01-28T15:30:35;99016.03;;;-0.53;100.00
68226;BME280;55045;49.410;11.030;2023-01-28T15:33:38;99023.00;;;-0.35;100.00
68226;BME280;55045;49.410;11.030;2023-01-28T15:36:42;99026.28;;;-0.50;100.00
68226;BME280;55045;49.410;11.030;2023-01-28T15:39:46;99027.97;;;-0.49;100.00
68226;BME280;55045;49.410;11.030;2023-01-28T15:42:52;98989.34;;;-0.87;100.00
68226;BME280;55045;49.410;11.030;2023-01-28T15:45:58;99022.59;;;-0.73;100.00
68226;BME280;55045;49.410;11.030;2023-01-28T15:49:03;99037.88;;;-0.75;100.00
68226;BME280;55045;49.410;11.030;2023-01-28T15:52:06;99036.16;;;-0.79;100.00
68226;BME280;55045;49.410;11.030;2023-01-28T15:55:36;99034.44;;;-0.78;100.00
68226;BME280;55045;49.410;11.030;2023-01-28T15:58:41;99044.97;;;-0.51;100.00
68226;BME280;55045;49.410;11.030;2023-01-28T16:01:46;99045.38;;;-0.87;100.00
68226;BME280;55045;49.410;11.030;2023-01-28T16:04:57;99045.59;;;-0.70;100.00
68226;BME280;55045;49.410;11.030;2023-01-28T16:08:02;99059.78;;;-0.91;100.00
68226;BME280;55045;49.410;11.030;2023-01-28T16:11:10;99058.84;;;-0.97;100.00
68226;BME280;55045;49.410;11.030;2023-01-28T16:14:20;99056.50;;;-0.80;100.00
68226;BME280;55045;49.410;11.030;2023-01-28T16:17:29;99069.16;;;-0.85;100.00
68226;BME280;55045;49.410;11.030;2023-01-28T16:20:33;99075.84;;;-0.95;100.00
68226;BME280;55045;49.410;11.030;2023-01-28T16:23:38;99068.13;;;-1.01;100.00
68226;BME280;55045;49.410;11.030;2023-01-28T16:26:54;99055.47;;;-0.95;100.00
68226;BME280;55045;49.410;11.030;2023-01-28T16:29:58;99075.97;;;-0.82;100.00
68226;BME280;55045;49.410;11.030;2023-01-28T16:34:30;99074.09;;;-1.00;100.00
68226;BME280;55045;49.410;11.030;2023-01-28T16:37:34;99065.97;;;-0.70;100.00
68226;BME280;55045;49.410;11.030;2023-01-28T16:50:41;99067.50;;;-0.83;100.00